SBGR/GRU METAR and TAF weather

Enter ICAO airport designator
Station Type Date Time Source
SBGR METAR 2022/07/03 14:00 UTC NOAA

SBGR 031400Z 07009KT CAVOK 23/13 Q1026


Station Type Date Time Source
SBGR Decoded METAR 2022/07/03 14:00 UTC NOAA

Guarulhos Civ / Mil , Brazil (SBGR) 23-26S 046-28W
Jul 03, 2022 - 10:00 AM EDT / 2022.07.03 1400 UTC
Wind: from the ENE (070 degrees) at 10 MPH (9 KT):0
Visibility: greater than 7 mile(s):0
Temperature: 73 F (23 C)
Dew Point: 55 F (13 C)
Relative Humidity: 53%
Pressure (altimeter): 30.30 in. Hg (1026 hPa)
ob: SBGR 031400Z 07009KT CAVOK 23/13 Q1026
cycle: 14

Station Type Date Time Source
SBGR TAF 2022/07/03 12:27 UTC NOAA

TAF TAF SBGR 030800Z 0312/0418 08007KT 8000 FEW006 TX28/0318Z TN13/0409Z
BECMG 0312/0314 04006KT CAVOK
TEMPO 0315/0317 34006KT PROB30 0408/0411 3000 BCFG BR BKN002
RMK PGQ

Example: see airport list